sensor_id;sensor_type;location;lat;lon;timestamp;P1;durP1;ratioP1;P2;durP2;ratioP2
1759;SDS011;877;46.266;20.062;2023-10-19T00:00:34;24.83;;;14.23;;
1759;SDS011;877;46.266;20.062;2023-10-19T00:03:04;19.37;;;14.23;;
1759;SDS011;877;46.266;20.062;2023-10-19T00:05:34;18.43;;;13.73;;
1759;SDS011;877;46.266;20.062;2023-10-19T00:08:03;21.73;;;14.60;;
1759;SDS011;877;46.266;20.062;2023-10-19T00:10:39;18.80;;;13.70;;
1759;SDS011;877;46.266;20.062;2023-10-19T00:13:09;21.60;;;13.47;;
1759;SDS011;877;46.266;20.062;2023-10-19T00:15:40;17.60;;;13.60;;
1759;SDS011;877;46.266;20.062;2023-10-19T00:18:13;21.03;;;13.50;;
1759;SDS011;877;46.266;20.062;2023-10-19T00:20:43;20.87;;;12.03;;
1759;SDS011;877;46.266;20.062;2023-10-19T00:23:24;16.17;;;11.30;;
1759;SDS011;877;46.266;20.062;2023-10-19T00:26:01;17.67;;;12.77;;
1759;SDS011;877;46.266;20.062;2023-10-19T00:28:36;18.07;;;11.97;;
1759;SDS011;877;46.266;20.062;2023-10-19T00:31:04;19.23;;;12.80;;
1759;SDS011;877;46.266;20.062;2023-10-19T00:33:33;18.37;;;11.93;;
1759;SDS011;877;46.266;20.062;2023-10-19T00:36:03;22.23;;;11.97;;
1759;SDS011;877;46.266;20.062;2023-10-19T00:38:33;18.50;;;12.00;;
1759;SDS011;877;46.266;20.062;2023-10-19T00:41:00;19.80;;;11.70;;
1759;SDS011;877;46.266;20.062;2023-10-19T00:43:32;16.90;;;12.87;;
1759;SDS011;877;46.266;20.062;2023-10-19T00:46:03;19.17;;;11.90;;
1759;SDS011;877;46.266;20.062;2023-10-19T00:48:55;15.93;;;11.30;;
1759;SDS011;877;46.266;20.062;2023-10-19T00:51:31;18.03;;;11.10;;
1759;SDS011;877;46.266;20.062;2023-10-19T00:54:24;16.37;;;11.53;;
1759;SDS011;877;46.266;20.062;2023-10-19T00:57:02;15.40;;;10.30;;
1759;SDS011;877;46.266;20.062;2023-10-19T00:59:39;17.27;;;11.83;;
1759;SDS011;877;46.266;20.062;2023-10-19T01:02:19;14.10;;;10.60;;
1759;SDS011;877;46.266;20.062;2023-10-19T01:04:55;15.53;;;11.00;;
1759;SDS011;877;46.266;20.062;2023-10-19T01:07:25;17.10;;;11.80;;
1759;SDS011;877;46.266;20.062;2023-10-19T01:09:53;14.30;;;10.30;;
1759;SDS011;877;46.266;20.062;2023-10-19T01:12:24;15.30;;;10.93;;
1759;SDS011;877;46.266;20.062;2023-10-19T01:17:58;14.27;;;10.77;;
1759;SDS011;877;46.266;20.062;2023-10-19T01:20:25;15.63;;;9.57;;
1759;SDS011;877;46.266;20.062;2023-10-19T01:23:05;13.80;;;10.10;;
1759;SDS011;877;46.266;20.062;2023-10-19T01:28:08;14.43;;;9.53;;
1759;SDS011;877;46.266;20.062;2023-10-19T01:30:35;15.40;;;9.97;;
1759;SDS011;877;46.266;20.062;2023-10-19T01:33:05;13.90;;;9.47;;
1759;SDS011;877;46.266;20.062;2023-10-19T01:35:41;12.47;;;9.80;;
1759;SDS011;877;46.266;20.062;2023-10-19T01:38:28;17.70;;;11.00;;
1759;SDS011;877;46.266;20.062;2023-10-19T01:40:58;10.67;;;8.40;;
1759;SDS011;877;46.266;20.062;2023-10-19T01:43:25;14.17;;;9.90;;
1759;SDS011;877;46.266;20.062;2023-10-19T01:45:58;15.20;;;9.90;;
1759;SDS011;877;46.266;20.062;2023-10-19T01:48:37;13.73;;;9.13;;
1759;SDS011;877;46.266;20.062;2023-10-19T01:51:05;16.03;;;9.10;;
1759;SDS011;877;46.266;20.062;2023-10-19T01:53:36;14.80;;;9.60;;
1759;SDS011;877;46.266;20.062;2023-10-19T01:56:08;18.20;;;10.37;;
1759;SDS011;877;46.266;20.062;2023-10-19T01:58:36;16.77;;;10.30;;
1759;SDS011;877;46.266;20.062;2023-10-19T02:01:03;12.30;;;8.27;;
1759;SDS011;877;46.266;20.062;2023-10-19T02:03:35;16.63;;;8.77;;
1759;SDS011;877;46.266;20.062;2023-10-19T02:06:02;11.00;;;8.30;;
1759;SDS011;877;46.266;20.062;2023-10-19T02:08:54;16.37;;;9.70;;
1759;SDS011;877;46.266;20.062;2023-10-19T02:11:51;12.87;;;9.20;;
1759;SDS011;877;46.266;20.062;2023-10-19T02:14:27;12.53;;;9.40;;
1759;SDS011;877;46.266;20.062;2023-10-19T02:16:57;15.60;;;9.00;;
1759;SDS011;877;46.266;20.062;2023-10-19T02:19:25;14.83;;;8.07;;
1759;SDS011;877;46.266;20.062;2023-10-19T02:21:56;11.47;;;8.80;;
1759;SDS011;877;46.266;20.062;2023-10-19T02:24:29;12.07;;;8.87;;
1759;SDS011;877;46.266;20.062;2023-10-19T02:26:55;13.93;;;8.93;;
1759;SDS011;877;46.266;20.062;2023-10-19T02:29:23;14.17;;;9.50;;
1759;SDS011;877;46.266;20.062;2023-10-19T02:31:51;13.80;;;8.30;;
1759;SDS011;877;46.266;20.062;2023-10-19T02:34:18;11.00;;;8.30;;
1759;SDS011;877;46.266;20.062;2023-10-19T02:36:44;12.73;;;9.33;;
1759;SDS011;877;46.266;20.062;2023-10-19T02:39:13;13.10;;;9.30;;
1759;SDS011;877;46.266;20.062;2023-10-19T02:41:43;12.27;;;9.13;;
1759;SDS011;877;46.266;20.062;2023-10-19T02:44:12;12.70;;;8.70;;
1759;SDS011;877;46.266;20.062;2023-10-19T02:46:39;15.30;;;9.57;;
1759;SDS011;877;46.266;20.062;2023-10-19T02:49:08;13.43;;;9.53;;
1759;SDS011;877;46.266;20.062;2023-10-19T02:51:38;12.77;;;8.63;;
1759;SDS011;877;46.266;20.062;2023-10-19T02:54:07;11.97;;;8.70;;
1759;SDS011;877;46.266;20.062;2023-10-19T02:56:34;16.30;;;8.40;;
1759;SDS011;877;46.266;20.062;2023-10-19T02:59:01;12.87;;;9.10;;
1759;SDS011;877;46.266;20.062;2023-10-19T03:01:29;15.50;;;10.50;;
1759;SDS011;877;46.266;20.062;2023-10-19T03:04:00;13.13;;;8.90;;
1759;SDS011;877;46.266;20.062;2023-10-19T03:06:27;12.37;;;8.90;;
1759;SDS011;877;46.266;20.062;2023-10-19T03:09:03;13.10;;;8.83;;
1759;SDS011;877;46.266;20.062;2023-10-19T03:11:41;12.80;;;9.23;;
1759;SDS011;877;46.266;20.062;2023-10-19T03:14:08;13.70;;;8.40;;
1759;SDS011;877;46.266;20.062;2023-10-19T03:16:37;14.10;;;9.90;;
1759;SDS011;877;46.266;20.062;2023-10-19T03:19:07;12.97;;;9.10;;
1759;SDS011;877;46.266;20.062;2023-10-19T03:21:33;15.83;;;10.73;;
1759;SDS011;877;46.266;20.062;2023-10-19T03:24:07;13.27;;;9.33;;
1759;SDS011;877;46.266;20.062;2023-10-19T03:27:00;13.80;;;9.40;;
1759;SDS011;877;46.266;20.062;2023-10-19T03:29:26;15.23;;;9.83;;
1759;SDS011;877;46.266;20.062;2023-10-19T03:31:56;15.97;;;10.10;;
1759;SDS011;877;46.266;20.062;2023-10-19T03:34:24;14.27;;;10.20;;
1759;SDS011;877;46.266;20.062;2023-10-19T03:36:50;15.70;;;10.43;;
1759;SDS011;877;46.266;20.062;2023-10-19T03:39:16;13.33;;;9.40;;
1759;SDS011;877;46.266;20.062;2023-10-19T03:41:43;16.50;;;10.80;;
1759;SDS011;877;46.266;20.062;2023-10-19T03:44:14;13.20;;;10.40;;
1759;SDS011;877;46.266;20.062;2023-10-19T03:46:49;17.07;;;10.67;;
1759;SDS011;877;46.266;20.062;2023-10-19T03:49:20;17.10;;;11.03;;
1759;SDS011;877;46.266;20.062;2023-10-19T03:51:47;15.50;;;10.87;;
1759;SDS011;877;46.266;20.062;2023-10-19T03:54:28;15.10;;;10.33;;
1759;SDS011;877;46.266;20.062;2023-10-19T03:56:55;16.67;;;10.67;;
1759;SDS011;877;46.266;20.062;2023-10-19T03:59:22;14.60;;;11.10;;
1759;SDS011;877;46.266;20.062;2023-10-19T04:01:49;14.87;;;11.13;;
1759;SDS011;877;46.266;20.062;2023-10-19T04:04:15;16.50;;;11.13;;
1759;SDS011;877;46.266;20.062;2023-10-19T04:06:41;15.17;;;10.60;;
1759;SDS011;877;46.266;20.062;2023-10-19T04:09:15;17.10;;;11.33;;
1759;SDS011;877;46.266;20.062;2023-10-19T04:11:43;19.63;;;11.60;;
1759;SDS011;877;46.266;20.062;2023-10-19T04:14:15;17.23;;;11.57;;
1759;SDS011;877;46.266;20.062;2023-10-19T04:16:42;18.60;;;11.30;;
1759;SDS011;877;46.266;20.062;2023-10-19T04:19:13;15.37;;;10.83;;
1759;SDS011;877;46.266;20.062;2023-10-19T04:21:40;16.93;;;13.00;;
1759;SDS011;877;46.266;20.062;2023-10-19T04:24:11;16.13;;;10.10;;
1759;SDS011;877;46.266;20.062;2023-10-19T04:26:38;18.97;;;11.67;;
1759;SDS011;877;46.266;20.062;2023-10-19T04:29:04;16.40;;;10.80;;
1759;SDS011;877;46.266;20.062;2023-10-19T04:31:41;16.20;;;11.30;;
1759;SDS011;877;46.266;20.062;2023-10-19T04:34:20;16.07;;;10.27;;
1759;SDS011;877;46.266;20.062;2023-10-19T04:36:50;16.60;;;11.43;;
1759;SDS011;877;46.266;20.062;2023-10-19T04:39:17;13.37;;;10.20;;
1759;SDS011;877;46.266;20.062;2023-10-19T04:41:46;15.87;;;11.00;;
1759;SDS011;877;46.266;20.062;2023-10-19T04:44:14;13.93;;;10.33;;
1759;SDS011;877;46.266;20.062;2023-10-19T04:46:41;16.10;;;11.97;;
1759;SDS011;877;46.266;20.062;2023-10-19T04:49:07;14.90;;;11.10;;
1759;SDS011;877;46.266;20.062;2023-10-19T04:51:34;17.93;;;10.43;;
1759;SDS011;877;46.266;20.062;2023-10-19T04:54:04;14.93;;;10.90;;
1759;SDS011;877;46.266;20.062;2023-10-19T04:56:31;14.97;;;10.07;;
1759;SDS011;877;46.266;20.062;2023-10-19T04:58:57;18.00;;;12.13;;
1759;SDS011;877;46.266;20.062;2023-10-19T05:01:23;19.20;;;11.00;;
1759;SDS011;877;46.266;20.062;2023-10-19T05:03:48;20.03;;;12.00;;
1759;SDS011;877;46.266;20.062;2023-10-19T05:06:14;17.73;;;11.63;;
1759;SDS011;877;46.266;20.062;2023-10-19T05:08:40;22.53;;;10.90;;
1759;SDS011;877;46.266;20.062;2023-10-19T05:11:06;16.93;;;12.53;;
1759;SDS011;877;46.266;20.062;2023-10-19T05:13:32;17.10;;;12.63;;
1759;SDS011;877;46.266;20.062;2023-10-19T05:15:58;17.97;;;12.93;;
1759;SDS011;877;46.266;20.062;2023-10-19T05:18:25;22.50;;;12.57;;
1759;SDS011;877;46.266;20.062;2023-10-19T05:20:54;18.67;;;13.30;;
1759;SDS011;877;46.266;20.062;2023-10-19T05:23:25;18.33;;;13.50;;
1759;SDS011;877;46.266;20.062;2023-10-19T05:26:02;19.30;;;12.30;;
1759;SDS011;877;46.266;20.062;2023-10-19T05:28:29;18.40;;;14.07;;
1759;SDS011;877;46.266;20.062;2023-10-19T05:30:55;20.97;;;14.07;;
1759;SDS011;877;46.266;20.062;2023-10-19T05:33:22;21.40;;;15.20;;
1759;SDS011;877;46.266;20.062;2023-10-19T05:35:49;19.67;;;15.23;;
1759;SDS011;877;46.266;20.062;2023-10-19T05:38:16;19.03;;;13.90;;
1759;SDS011;877;46.266;20.062;2023-10-19T05:40:44;21.80;;;14.43;;
1759;SDS011;877;46.266;20.062;2023-10-19T05:43:10;22.63;;;15.87;;
1759;SDS011;877;46.266;20.062;2023-10-19T05:45:38;21.00;;;15.77;;
1759;SDS011;877;46.266;20.062;2023-10-19T05:48:04;22.70;;;11.90;;
1759;SDS011;877;46.266;20.062;2023-10-19T05:50:34;31.30;;;15.80;;
1759;SDS011;877;46.266;20.062;2023-10-19T05:53:01;23.40;;;17.17;;
1759;SDS011;877;46.266;20.062;2023-10-19T05:55:28;21.90;;;15.70;;
1759;SDS011;877;46.266;20.062;2023-10-19T05:57:54;21.77;;;14.70;;
1759;SDS011;877;46.266;20.062;2023-10-19T06:00:20;26.40;;;17.70;;
1759;SDS011;877;46.266;20.062;2023-10-19T06:02:50;28.50;;;19.50;;
1759;SDS011;877;46.266;20.062;2023-10-19T06:05:16;28.07;;;19.13;;
1759;SDS011;877;46.266;20.062;2023-10-19T06:07:47;28.73;;;18.90;;
1759;SDS011;877;46.266;20.062;2023-10-19T06:10:15;30.07;;;19.17;;
1759;SDS011;877;46.266;20.062;2023-10-19T06:12:43;24.40;;;16.53;;
1759;SDS011;877;46.266;20.062;2023-10-19T06:15:12;27.60;;;18.10;;
1759;SDS011;877;46.266;20.062;2023-10-19T06:17:39;25.70;;;19.20;;
1759;SDS011;877;46.266;20.062;2023-10-19T06:20:09;27.90;;;19.73;;
1759;SDS011;877;46.266;20.062;2023-10-19T06:22:46;26.17;;;18.43;;
1759;SDS011;877;46.266;20.062;2023-10-19T06:25:16;31.37;;;19.73;;
1759;SDS011;877;46.266;20.062;2023-10-19T06:27:43;27.67;;;19.67;;
1759;SDS011;877;46.266;20.062;2023-10-19T06:30:09;28.30;;;19.33;;
1759;SDS011;877;46.266;20.062;2023-10-19T06:32:36;25.73;;;18.03;;
1759;SDS011;877;46.266;20.062;2023-10-19T06:35:02;25.27;;;17.60;;
1759;SDS011;877;46.266;20.062;2023-10-19T06:37:29;29.27;;;20.37;;
1759;SDS011;877;46.266;20.062;2023-10-19T06:39:54;28.20;;;20.00;;
1759;SDS011;877;46.266;20.062;2023-10-19T06:42:20;32.17;;;20.20;;
1759;SDS011;877;46.266;20.062;2023-10-19T06:44:46;31.83;;;21.23;;
1759;SDS011;877;46.266;20.062;2023-10-19T06:47:12;35.73;;;23.67;;
1759;SDS011;877;46.266;20.062;2023-10-19T06:49:39;28.60;;;19.33;;
1759;SDS011;877;46.266;20.062;2023-10-19T06:52:05;37.03;;;23.13;;
1759;SDS011;877;46.266;20.062;2023-10-19T06:54:31;35.17;;;22.73;;
1759;SDS011;877;46.266;20.062;2023-10-19T06:56:58;35.37;;;22.80;;
1759;SDS011;877;46.266;20.062;2023-10-19T06:59:24;33.30;;;22.30;;
1759;SDS011;877;46.266;20.062;2023-10-19T07:01:50;27.77;;;20.83;;
1759;SDS011;877;46.266;20.062;2023-10-19T07:04:16;27.83;;;18.53;;
1759;SDS011;877;46.266;20.062;2023-10-19T07:06:42;29.30;;;20.03;;
1759;SDS011;877;46.266;20.062;2023-10-19T07:09:07;24.33;;;18.47;;
1759;SDS011;877;46.266;20.062;2023-10-19T07:11:35;22.53;;;16.93;;
1759;SDS011;877;46.266;20.062;2023-10-19T07:14:01;25.17;;;16.43;;
1759;SDS011;877;46.266;20.062;2023-10-19T07:16:28;21.67;;;14.83;;
1759;SDS011;877;46.266;20.062;2023-10-19T07:18:55;20.53;;;15.30;;
1759;SDS011;877;46.266;20.062;2023-10-19T07:21:24;21.30;;;13.60;;
1759;SDS011;877;46.266;20.062;2023-10-19T07:23:50;20.30;;;15.87;;
1759;SDS011;877;46.266;20.062;2023-10-19T07:26:18;20.60;;;14.60;;
1759;SDS011;877;46.266;20.062;2023-10-19T07:28:46;17.53;;;13.70;;
1759;SDS011;877;46.266;20.062;2023-10-19T07:31:11;17.40;;;13.10;;
1759;SDS011;877;46.266;20.062;2023-10-19T07:33:40;18.63;;;12.67;;
1759;SDS011;877;46.266;20.062;2023-10-19T07:36:13;17.90;;;13.67;;
1759;SDS011;877;46.266;20.062;2023-10-19T07:38:39;23.30;;;14.07;;
1759;SDS011;877;46.266;20.062;2023-10-19T07:41:07;19.47;;;13.87;;
1759;SDS011;877;46.266;20.062;2023-10-19T07:43:35;20.00;;;12.70;;
1759;SDS011;877;46.266;20.062;2023-10-19T07:46:01;15.70;;;12.33;;
1759;SDS011;877;46.266;20.062;2023-10-19T07:48:27;17.03;;;13.03;;
1759;SDS011;877;46.266;20.062;2023-10-19T07:50:54;17.87;;;12.47;;
1759;SDS011;877;46.266;20.062;2023-10-19T07:53:21;16.43;;;13.63;;
1759;SDS011;877;46.266;20.062;2023-10-19T07:55:47;17.63;;;12.23;;
1759;SDS011;877;46.266;20.062;2023-10-19T07:58:13;16.90;;;12.80;;
1759;SDS011;877;46.266;20.062;2023-10-19T08:00:39;15.47;;;11.40;;
1759;SDS011;877;46.266;20.062;2023-10-19T08:03:07;16.07;;;12.50;;
1759;SDS011;877;46.266;20.062;2023-10-19T08:05:34;15.00;;;10.70;;
1759;SDS011;877;46.266;20.062;2023-10-19T08:08:01;16.73;;;12.33;;
1759;SDS011;877;46.266;20.062;2023-10-19T08:10:31;15.90;;;10.80;;
1759;SDS011;877;46.266;20.062;2023-10-19T08:13:00;14.20;;;10.60;;
1759;SDS011;877;46.266;20.062;2023-10-19T08:15:26;13.80;;;10.70;;
1759;SDS011;877;46.266;20.062;2023-10-19T08:17:55;16.53;;;12.77;;
1759;SDS011;877;46.266;20.062;2023-10-19T08:20:21;12.70;;;9.70;;
1759;SDS011;877;46.266;20.062;2023-10-19T08:22:55;12.27;;;10.30;;
1759;SDS011;877;46.266;20.062;2023-10-19T08:25:22;13.73;;;10.30;;
1759;SDS011;877;46.266;20.062;2023-10-19T08:27:49;12.50;;;9.40;;
1759;SDS011;877;46.266;20.062;2023-10-19T08:30:19;10.93;;;7.00;;
1759;SDS011;877;46.266;20.062;2023-10-19T08:32:46;11.60;;;9.53;;
1759;SDS011;877;46.266;20.062;2023-10-19T08:35:17;11.43;;;10.17;;
1759;SDS011;877;46.266;20.062;2023-10-19T08:37:53;11.80;;;9.63;;
1759;SDS011;877;46.266;20.062;2023-10-19T08:40:25;13.60;;;10.07;;
1759;SDS011;877;46.266;20.062;2023-10-19T08:42:52;12.17;;;9.57;;
1759;SDS011;877;46.266;20.062;2023-10-19T08:45:18;10.67;;;7.60;;
1759;SDS011;877;46.266;20.062;2023-10-19T08:47:53;9.50;;;8.03;;
1759;SDS011;877;46.266;20.062;2023-10-19T08:50:28;10.83;;;8.70;;
1759;SDS011;877;46.266;20.062;2023-10-19T08:53:02;12.00;;;8.20;;
1759;SDS011;877;46.266;20.062;2023-10-19T08:55:30;11.60;;;8.30;;
1759;SDS011;877;46.266;20.062;2023-10-19T08:57:56;9.40;;;7.37;;
1759;SDS011;877;46.266;20.062;2023-10-19T09:00:26;13.20;;;8.23;;
1759;SDS011;877;46.266;20.062;2023-10-19T09:02:54;11.03;;;8.40;;
1759;SDS011;877;46.266;20.062;2023-10-19T09:05:24;9.60;;;8.30;;
1759;SDS011;877;46.266;20.062;2023-10-19T09:07:53;9.90;;;7.63;;
1759;SDS011;877;46.266;20.062;2023-10-19T09:10:20;11.50;;;9.10;;
1759;SDS011;877;46.266;20.062;2023-10-19T09:13:00;13.30;;;9.10;;
1759;SDS011;877;46.266;20.062;2023-10-19T09:15:28;11.40;;;8.87;;
1759;SDS011;877;46.266;20.062;2023-10-19T09:20:46;10.33;;;8.03;;
1759;SDS011;877;46.266;20.062;2023-10-19T09:23:33;11.10;;;6.83;;
1759;SDS011;877;46.266;20.062;2023-10-19T09:26:01;12.70;;;8.20;;
1759;SDS011;877;46.266;20.062;2023-10-19T09:28:28;9.83;;;6.80;;
1759;SDS011;877;46.266;20.062;2023-10-19T09:30:54;10.87;;;7.70;;
1759;SDS011;877;46.266;20.062;2023-10-19T09:33:23;9.37;;;7.87;;
1759;SDS011;877;46.266;20.062;2023-10-19T09:35:50;9.00;;;7.20;;
1759;SDS011;877;46.266;20.062;2023-10-19T09:38:21;9.50;;;7.37;;
1759;SDS011;877;46.266;20.062;2023-10-19T09:40:48;12.47;;;7.83;;
1759;SDS011;877;46.266;20.062;2023-10-19T09:43:15;14.00;;;8.60;;
1759;SDS011;877;46.266;20.062;2023-10-19T09:45:48;15.27;;;8.30;;
1759;SDS011;877;46.266;20.062;2023-10-19T09:48:18;12.97;;;8.43;;
1759;SDS011;877;46.266;20.062;2023-10-19T09:50:55;9.03;;;7.67;;
1759;SDS011;877;46.266;20.062;2023-10-19T09:53:26;11.03;;;8.13;;
1759;SDS011;877;46.266;20.062;2023-10-19T09:55:56;9.37;;;7.70;;
1759;SDS011;877;46.266;20.062;2023-10-19T09:58:45;10.60;;;7.50;;
1759;SDS011;877;46.266;20.062;2023-10-19T10:01:20;10.10;;;7.07;;
1759;SDS011;877;46.266;20.062;2023-10-19T10:03:51;9.67;;;7.27;;
1759;SDS011;877;46.266;20.062;2023-10-19T10:06:28;10.17;;;7.00;;
1759;SDS011;877;46.266;20.062;2023-10-19T10:08:55;12.13;;;6.13;;
1759;SDS011;877;46.266;20.062;2023-10-19T10:11:24;9.63;;;6.97;;
1759;SDS011;877;46.266;20.062;2023-10-19T10:13:53;9.80;;;7.00;;
1759;SDS011;877;46.266;20.062;2023-10-19T10:16:23;9.50;;;4.80;;
1759;SDS011;877;46.266;20.062;2023-10-19T10:18:51;10.03;;;6.13;;
1759;SDS011;877;46.266;20.062;2023-10-19T10:21:22;9.77;;;6.43;;
1759;SDS011;877;46.266;20.062;2023-10-19T10:23:52;6.90;;;5.33;;
1759;SDS011;877;46.266;20.062;2023-10-19T10:26:18;9.73;;;6.70;;
1759;SDS011;877;46.266;20.062;2023-10-19T10:29:11;8.93;;;7.00;;
1759;SDS011;877;46.266;20.062;2023-10-19T10:31:57;12.57;;;6.57;;
1759;SDS011;877;46.266;20.062;2023-10-19T10:37:05;11.80;;;7.50;;
1759;SDS011;877;46.266;20.062;2023-10-19T10:39:36;8.73;;;7.57;;
1759;SDS011;877;46.266;20.062;2023-10-19T10:42:04;16.80;;;8.07;;
1759;SDS011;877;46.266;20.062;2023-10-19T10:47:11;10.67;;;8.33;;
1759;SDS011;877;46.266;20.062;2023-10-19T10:49:54;11.20;;;8.63;;
1759;SDS011;877;46.266;20.062;2023-10-19T10:52:28;13.43;;;9.20;;
1759;SDS011;877;46.266;20.062;2023-10-19T10:54:58;12.40;;;8.93;;
1759;SDS011;877;46.266;20.062;2023-10-19T10:57:31;15.40;;;9.27;;
1759;SDS011;877;46.266;20.062;2023-10-19T11:00:01;11.70;;;10.20;;
1759;SDS011;877;46.266;20.062;2023-10-19T11:02:37;12.77;;;10.00;;
1759;SDS011;877;46.266;20.062;2023-10-19T11:05:08;12.50;;;10.60;;
1759;SDS011;877;46.266;20.062;2023-10-19T11:07:39;14.27;;;10.90;;
1759;SDS011;877;46.266;20.062;2023-10-19T11:10:05;12.50;;;9.77;;
1759;SDS011;877;46.266;20.062;2023-10-19T11:12:32;11.10;;;9.37;;
1759;SDS011;877;46.266;20.062;2023-10-19T11:14:58;17.93;;;9.90;;
1759;SDS011;877;46.266;20.062;2023-10-19T11:17:25;13.00;;;10.80;;
1759;SDS011;877;46.266;20.062;2023-10-19T11:19:57;13.40;;;8.87;;
1759;SDS011;877;46.266;20.062;2023-10-19T11:22:24;16.63;;;9.07;;
1759;SDS011;877;46.266;20.062;2023-10-19T11:24:51;12.93;;;9.33;;
1759;SDS011;877;46.266;20.062;2023-10-19T11:27:27;10.23;;;8.50;;
1759;SDS011;877;46.266;20.062;2023-10-19T11:29:57;12.63;;;9.47;;
1759;SDS011;877;46.266;20.062;2023-10-19T11:32:24;13.17;;;9.00;;
1759;SDS011;877;46.266;20.062;2023-10-19T11:34:52;14.03;;;9.17;;
1759;SDS011;877;46.266;20.062;2023-10-19T11:37:19;10.20;;;8.37;;
1759;SDS011;877;46.266;20.062;2023-10-19T11:39:44;10.83;;;8.30;;
1759;SDS011;877;46.266;20.062;2023-10-19T11:42:11;11.67;;;8.83;;
1759;SDS011;877;46.266;20.062;2023-10-19T11:44:37;11.10;;;8.33;;
1759;SDS011;877;46.266;20.062;2023-10-19T11:47:04;11.43;;;8.50;;
1759;SDS011;877;46.266;20.062;2023-10-19T11:49:30;11.97;;;8.80;;
1759;SDS011;877;46.266;20.062;2023-10-19T11:51:56;11.70;;;8.00;;
1759;SDS011;877;46.266;20.062;2023-10-19T11:54:22;13.77;;;9.13;;
1759;SDS011;877;46.266;20.062;2023-10-19T11:56:48;11.80;;;8.70;;
1759;SDS011;877;46.266;20.062;2023-10-19T11:59:14;10.57;;;7.77;;
1759;SDS011;877;46.266;20.062;2023-10-19T12:01:40;10.80;;;7.87;;
1759;SDS011;877;46.266;20.062;2023-10-19T12:04:07;12.77;;;8.33;;
1759;SDS011;877;46.266;20.062;2023-10-19T12:06:34;10.27;;;8.60;;
1759;SDS011;877;46.266;20.062;2023-10-19T12:09:00;11.27;;;8.30;;
1759;SDS011;877;46.266;20.062;2023-10-19T12:11:39;10.93;;;7.70;;
1759;SDS011;877;46.266;20.062;2023-10-19T12:14:06;13.20;;;8.43;;
1759;SDS011;877;46.266;20.062;2023-10-19T12:16:37;10.30;;;7.90;;
1759;SDS011;877;46.266;20.062;2023-10-19T12:19:04;16.40;;;8.23;;
1759;SDS011;877;46.266;20.062;2023-10-19T12:21:30;13.20;;;7.10;;
1759;SDS011;877;46.266;20.062;2023-10-19T12:23:56;10.90;;;7.73;;
1759;SDS011;877;46.266;20.062;2023-10-19T12:26:24;8.73;;;6.40;;
1759;SDS011;877;46.266;20.062;2023-10-19T12:28:50;7.57;;;5.30;;
1759;SDS011;877;46.266;20.062;2023-10-19T12:31:16;9.50;;;5.80;;
1759;SDS011;877;46.266;20.062;2023-10-19T12:33:44;8.47;;;5.13;;
1759;SDS011;877;46.266;20.062;2023-10-19T12:36:10;7.20;;;4.90;;
1759;SDS011;877;46.266;20.062;2023-10-19T12:38:55;8.70;;;6.20;;
1759;SDS011;877;46.266;20.062;2023-10-19T12:41:20;10.43;;;5.40;;
1759;SDS011;877;46.266;20.062;2023-10-19T12:43:47;13.67;;;5.30;;
1759;SDS011;877;46.266;20.062;2023-10-19T12:46:13;7.53;;;4.30;;
1759;SDS011;877;46.266;20.062;2023-10-19T12:48:45;9.20;;;5.00;;
1759;SDS011;877;46.266;20.062;2023-10-19T12:51:13;7.53;;;4.70;;
1759;SDS011;877;46.266;20.062;2023-10-19T12:53:39;8.60;;;5.30;;
1759;SDS011;877;46.266;20.062;2023-10-19T12:56:05;6.87;;;5.20;;
1759;SDS011;877;46.266;20.062;2023-10-19T12:58:33;8.80;;;4.53;;
1759;SDS011;877;46.266;20.062;2023-10-19T13:00:58;7.43;;;5.20;;
1759;SDS011;877;46.266;20.062;2023-10-19T13:03:25;11.60;;;6.30;;
1759;SDS011;877;46.266;20.062;2023-10-19T13:05:57;9.13;;;4.57;;
1759;SDS011;877;46.266;20.062;2023-10-19T13:08:23;7.47;;;4.60;;
1759;SDS011;877;46.266;20.062;2023-10-19T13:10:52;7.10;;;4.63;;
1759;SDS011;877;46.266;20.062;2023-10-19T13:13:19;10.83;;;6.00;;
1759;SDS011;877;46.266;20.062;2023-10-19T13:15:49;10.93;;;5.30;;
1759;SDS011;877;46.266;20.062;2023-10-19T13:18:16;8.43;;;4.40;;
1759;SDS011;877;46.266;20.062;2023-10-19T13:20:46;8.60;;;4.10;;
1759;SDS011;877;46.266;20.062;2023-10-19T13:23:14;6.17;;;3.30;;
1759;SDS011;877;46.266;20.062;2023-10-19T13:25:46;11.10;;;4.43;;
1759;SDS011;877;46.266;20.062;2023-10-19T13:28:18;8.63;;;4.47;;
1759;SDS011;877;46.266;20.062;2023-10-19T13:30:46;5.60;;;4.10;;
1759;SDS011;877;46.266;20.062;2023-10-19T13:33:14;5.30;;;4.03;;
1759;SDS011;877;46.266;20.062;2023-10-19T13:35:43;11.23;;;4.37;;
1759;SDS011;877;46.266;20.062;2023-10-19T13:38:10;8.70;;;3.90;;
1759;SDS011;877;46.266;20.062;2023-10-19T13:40:39;5.43;;;3.90;;
1759;SDS011;877;46.266;20.062;2023-10-19T13:43:08;5.70;;;3.70;;
1759;SDS011;877;46.266;20.062;2023-10-19T13:45:39;7.17;;;4.43;;
1759;SDS011;877;46.266;20.062;2023-10-19T13:48:06;9.83;;;4.90;;
1759;SDS011;877;46.266;20.062;2023-10-19T13:50:34;11.40;;;4.50;;
1759;SDS011;877;46.266;20.062;2023-10-19T13:53:00;6.30;;;4.10;;
1759;SDS011;877;46.266;20.062;2023-10-19T13:55:30;6.53;;;4.30;;
1759;SDS011;877;46.266;20.062;2023-10-19T13:57:56;5.63;;;4.10;;
1759;SDS011;877;46.266;20.062;2023-10-19T14:00:22;9.33;;;4.37;;
1759;SDS011;877;46.266;20.062;2023-10-19T14:03:04;7.23;;;3.70;;
1759;SDS011;877;46.266;20.062;2023-10-19T14:08:25;5.50;;;3.43;;
1759;SDS011;877;46.266;20.062;2023-10-19T14:10:51;6.90;;;3.93;;
1759;SDS011;877;46.266;20.062;2023-10-19T14:13:17;5.93;;;3.70;;
1759;SDS011;877;46.266;20.062;2023-10-19T14:15:43;8.03;;;4.13;;
1759;SDS011;877;46.266;20.062;2023-10-19T14:18:09;5.27;;;3.43;;
1759;SDS011;877;46.266;20.062;2023-10-19T14:20:38;9.27;;;4.23;;
1759;SDS011;877;46.266;20.062;2023-10-19T14:23:05;8.03;;;4.37;;
1759;SDS011;877;46.266;20.062;2023-10-19T14:25:35;10.03;;;5.13;;
1759;SDS011;877;46.266;20.062;2023-10-19T14:28:03;6.60;;;4.00;;
1759;SDS011;877;46.266;20.062;2023-10-19T14:30:31;5.60;;;4.00;;
1759;SDS011;877;46.266;20.062;2023-10-19T14:32:58;6.80;;;3.90;;
1759;SDS011;877;46.266;20.062;2023-10-19T14:35:24;5.90;;;4.20;;
1759;SDS011;877;46.266;20.062;2023-10-19T14:37:51;8.53;;;5.47;;
1759;SDS011;877;46.266;20.062;2023-10-19T14:40:21;12.23;;;5.10;;
1759;SDS011;877;46.266;20.062;2023-10-19T14:42:50;9.80;;;5.50;;
1759;SDS011;877;46.266;20.062;2023-10-19T14:45:19;14.30;;;6.30;;
1759;SDS011;877;46.266;20.062;2023-10-19T14:47:47;7.23;;;5.00;;
1759;SDS011;877;46.266;20.062;2023-10-19T14:50:14;10.80;;;5.40;;
1759;SDS011;877;46.266;20.062;2023-10-19T14:52:40;10.90;;;5.20;;
1759;SDS011;877;46.266;20.062;2023-10-19T14:55:10;8.83;;;5.60;;
1759;SDS011;877;46.266;20.062;2023-10-19T14:57:37;10.80;;;5.67;;
1759;SDS011;877;46.266;20.062;2023-10-19T15:00:05;8.87;;;5.53;;
1759;SDS011;877;46.266;20.062;2023-10-19T15:02:55;8.20;;;5.00;;
1759;SDS011;877;46.266;20.062;2023-10-19T15:05:26;11.93;;;5.40;;
1759;SDS011;877;46.266;20.062;2023-10-19T15:07:53;11.50;;;5.50;;
1759;SDS011;877;46.266;20.062;2023-10-19T15:10:23;7.80;;;5.80;;
1759;SDS011;877;46.266;20.062;2023-10-19T15:12:50;7.77;;;6.07;;
1759;SDS011;877;46.266;20.062;2023-10-19T15:15:21;9.50;;;5.80;;
1759;SDS011;877;46.266;20.062;2023-10-19T15:17:48;11.07;;;6.17;;
1759;SDS011;877;46.266;20.062;2023-10-19T15:20:15;7.40;;;5.50;;
1759;SDS011;877;46.266;20.062;2023-10-19T15:22:42;12.27;;;7.83;;
1759;SDS011;877;46.266;20.062;2023-10-19T15:25:09;11.43;;;8.00;;
1759;SDS011;877;46.266;20.062;2023-10-19T15:27:43;11.80;;;9.67;;